Time;durP1;ratioP1;P1;durP2;ratioP2;P2;SDS_P1;SDS_P2;PMS_P1;PMS_P2;Temp;Humidity;BMP_temperature;BMP_pressure;BME280_temperature;BME280_humidity;BME280_pressure;Samples;Min_cycle;Max_cycle;Signal;HPM_P1;HPM_P2
2023/12/13 00:01:34;;;;;;;7.03;4.82;;;7.80;99.90;;;;;;5012223;28;20292;-59
2023/12/13 00:04:02;;;;;;;6.13;4.25;;;7.90;99.90;;;;;;5025763;28;20203;-56
2023/12/13 00:06:31;;;;;;;4.72;4.15;;;7.90;99.90;;;;;;5007784;28;20314;-57
2023/12/13 00:08:59;;;;;;;12.40;3.90;;;8.00;99.90;;;;;;5011978;28;20285;-57
2023/12/13 00:11:27;;;;;;;5.32;4.80;;;8.00;99.90;;;;;;5012020;28;20731;-59
2023/12/13 00:13:55;;;;;;;6.47;4.22;;;8.00;99.90;;;;;;5011655;28;20290;-59
2023/12/13 00:16:23;;;;;;;8.18;5.38;;;8.00;99.90;;;;;;5012088;28;20331;-58
2023/12/13 00:18:51;;;;;;;7.38;5.00;;;8.00;99.90;;;;;;5012120;28;20245;-59
2023/12/13 00:21:19;;;;;;;10.63;4.95;;;8.00;99.90;;;;;;5010409;28;20212;-58
2023/12/13 00:23:48;;;;;;;5.47;4.97;;;8.00;99.90;;;;;;5011781;28;20734;-58
2023/12/13 00:26:16;;;;;;;10.40;4.75;;;7.90;99.90;;;;;;5017678;28;20668;-58
2023/12/13 00:28:44;;;;;;;6.10;4.82;;;7.90;99.90;;;;;;5005837;28;20325;-60
2023/12/13 00:31:12;;;;;;;3.58;3.28;;;8.00;99.90;;;;;;5011110;28;20211;-60
2023/12/13 00:33:40;;;;;;;7.28;4.75;;;8.00;99.90;;;;;;5010901;28;20637;-57
2023/12/13 00:36:08;;;;;;;8.43;5.10;;;8.00;99.90;;;;;;5009793;28;20231;-57
2023/12/13 00:38:36;;;;;;;8.15;3.90;;;8.00;99.90;;;;;;5011582;28;20262;-59
2023/12/13 00:41:05;;;;;;;6.93;5.00;;;8.00;99.90;;;;;;5008975;28;20629;-60
2023/12/13 00:43:33;;;;;;;9.43;5.65;;;8.00;99.90;;;;;;5010964;28;20203;-58
2023/12/13 00:46:01;;;;;;;7.20;3.58;;;8.00;99.90;;;;;;5011232;28;20243;-58
2023/12/13 00:48:29;;;;;;;6.65;3.10;;;7.90;99.90;;;;;;5011914;28;20239;-57
2023/12/13 00:50:57;;;;;;;7.20;3.70;;;7.90;99.90;;;;;;5021415;28;20211;-57
2023/12/13 00:53:25;;;;;;;6.45;3.83;;;7.90;99.90;;;;;;5011793;28;20323;-58
2023/12/13 00:55:53;;;;;;;8.95;3.42;;;7.90;99.90;;;;;;5011373;28;20313;-56
2023/12/13 00:58:22;;;;;;;5.18;3.22;;;7.80;99.90;;;;;;5011585;28;20217;-60
2023/12/13 01:00:50;;;;;;;9.60;2.58;;;7.80;99.90;;;;;;5011429;28;20207;-57
2023/12/13 01:03:18;;;;;;;6.68;2.50;;;7.80;99.90;;;;;;5011685;28;20210;-58
2023/12/13 01:05:46;;;;;;;8.48;2.22;;;7.90;99.90;;;;;;5006633;28;20254;-59
2023/12/13 01:08:14;;;;;;;12.68;2.53;;;7.90;99.90;;;;;;5011585;28;20734;-59
2023/12/13 01:10:42;;;;;;;4.88;2.20;;;8.00;99.90;;;;;;5011316;28;20207;-59
2023/12/13 01:13:09;;;;;;;4.80;2.25;;;8.00;99.90;;;;;;5011420;28;20218;-60
2023/12/13 01:15:39;;;;;;;8.35;1.90;;;8.00;99.90;;;;;;5011073;28;20265;-60
2023/12/13 01:18:06;;;;;;;7.88;2.30;;;8.10;99.90;;;;;;5010950;28;20250;-59
2023/12/13 01:20:35;;;;;;;4.10;1.90;;;8.00;99.90;;;;;;5008962;28;20277;-59
2023/12/13 01:23:04;;;;;;;3.28;1.40;;;8.10;99.90;;;;;;5011565;28;20231;-59
2023/12/13 01:25:31;;;;;;;4.10;1.65;;;8.10;99.90;;;;;;5011259;28;20249;-59
2023/12/13 01:27:59;;;;;;;3.97;1.67;;;8.10;99.90;;;;;;5011246;28;20207;-59
2023/12/13 01:30:27;;;;;;;7.72;1.40;;;8.10;99.90;;;;;;5011386;28;20820;-58
2023/12/13 01:32:56;;;;;;;6.28;1.98;;;8.00;99.90;;;;;;5011161;28;20203;-57
2023/12/13 01:35:24;;;;;;;4.65;1.40;;;8.10;99.90;;;;;;5019799;28;20203;-58
2023/12/13 01:37:52;;;;;;;6.00;1.55;;;8.00;99.90;;;;;;5011100;28;20923;-60
2023/12/13 01:40:20;;;;;;;8.43;1.55;;;8.00;99.90;;;;;;5026403;28;20231;-60
2023/12/13 01:42:48;;;;;;;5.40;1.50;;;8.00;99.90;;;;;;5031219;28;20218;-60
2023/12/13 01:45:16;;;;;;;6.57;1.60;;;8.00;99.90;;;;;;5019793;28;20215;-60
2023/12/13 01:47:44;;;;;;;3.28;1.35;;;7.90;99.90;;;;;;5013182;28;20704;-57
2023/12/13 01:50:14;;;;;;;9.48;1.48;;;7.90;99.90;;;;;;5011559;28;20203;-60
2023/12/13 01:52:41;;;;;;;8.10;1.20;;;7.90;99.90;;;;;;5009778;28;20680;-59
2023/12/13 01:55:09;;;;;;;3.38;1.33;;;7.80;99.90;;;;;;5010782;28;20234;-60
2023/12/13 01:57:37;;;;;;;6.63;1.27;;;7.90;99.90;;;;;;5012243;28;20305;-58
2023/12/13 02:00:06;;;;;;;3.10;1.20;;;7.90;99.90;;;;;;5031529;28;20751;-60
2023/12/13 02:02:35;;;;;;;2.75;1.10;;;7.90;99.90;;;;;;5034548;28;20215;-60
2023/12/13 02:05:03;;;;;;;6.72;1.40;;;7.90;99.90;;;;;;5034469;28;20211;-60
2023/12/13 02:07:32;;;;;;;6.35;1.17;;;7.90;99.90;;;;;;5016054;28;20223;-60
2023/12/13 02:10:00;;;;;;;4.80;1.30;;;8.00;99.90;;;;;;5014227;28;20653;-56
2023/12/13 02:12:28;;;;;;;8.73;0.98;;;8.00;99.90;;;;;;5014259;28;20211;-57
2023/12/13 02:14:56;;;;;;;6.65;1.27;;;8.10;99.90;;;;;;5014340;28;20211;-57
2023/12/13 02:17:24;;;;;;;5.15;1.10;;;8.10;99.90;;;;;;5014208;28;20273;-57
2023/12/13 02:19:52;;;;;;;6.88;1.15;;;8.20;99.90;;;;;;5014165;28;20227;-57
2023/12/13 02:22:21;;;;;;;8.50;1.23;;;8.20;99.90;;;;;;5006928;28;20200;-57
2023/12/13 02:24:49;;;;;;;4.13;1.13;;;8.20;99.90;;;;;;5013584;28;20712;-57
2023/12/13 02:27:17;;;;;;;8.82;1.05;;;8.20;99.90;;;;;;5008870;28;20231;-57
2023/12/13 02:29:48;;;;;;;5.57;1.10;;;8.20;99.90;;;;;;5013907;28;20590;-58
2023/12/13 02:32:16;;;;;;;7.70;1.30;;;8.20;99.90;;;;;;5012047;28;20211;-58
2023/12/13 02:34:44;;;;;;;4.90;1.25;;;8.20;99.90;;;;;;5009283;28;20253;-58
2023/12/13 02:37:12;;;;;;;2.30;0.70;;;8.20;99.90;;;;;;5007643;28;20227;-59
2023/12/13 02:39:41;;;;;;;5.95;0.77;;;8.20;99.90;;;;;;5013836;28;20233;-57
2023/12/13 02:42:09;;;;;;;2.80;0.70;;;8.10;99.90;;;;;;5013752;28;20239;-57
2023/12/13 02:44:38;;;;;;;2.15;0.80;;;8.00;99.90;;;;;;5008078;28;20203;-57
2023/12/13 02:47:06;;;;;;;0.82;0.82;;;8.00;99.90;;;;;;5012826;28;20704;-58
2023/12/13 02:49:34;;;;;;;0.95;0.60;;;7.90;99.90;;;;;;5013454;28;20254;-58
2023/12/13 02:52:02;;;;;;;6.72;0.68;;;7.90;99.90;;;;;;5008280;28;20207;-58
2023/12/13 02:54:30;;;;;;;3.85;0.75;;;7.80;99.90;;;;;;5013584;28;20203;-57
2023/12/13 02:56:59;;;;;;;3.15;1.05;;;7.80;99.90;;;;;;5013264;28;20617;-57
2023/12/13 02:59:27;;;;;;;2.92;0.90;;;7.80;99.90;;;;;;5013620;28;20707;-58
2023/12/13 03:01:55;;;;;;;2.90;0.50;;;7.70;99.90;;;;;;5013259;28;20269;-58
2023/12/13 03:04:23;;;;;;;3.13;0.77;;;7.70;99.90;;;;;;5013278;28;20306;-58
2023/12/13 03:06:51;;;;;;;1.52;0.50;;;7.70;99.90;;;;;;5004212;28;20238;-58
2023/12/13 03:09:19;;;;;;;2.08;0.45;;;7.70;99.90;;;;;;5013131;28;20235;-58
2023/12/13 03:11:47;;;;;;;0.63;0.40;;;7.60;99.90;;;;;;5013531;28;20270;-57
2023/12/13 03:14:16;;;;;;;0.85;0.45;;;7.50;99.90;;;;;;5032876;28;20760;-58
2023/12/13 03:16:44;;;;;;;2.28;0.50;;;7.50;99.90;;;;;;5032739;28;20277;-57
2023/12/13 03:19:12;;;;;;;0.65;0.30;;;7.40;99.90;;;;;;5032611;28;20202;-57
2023/12/13 03:21:39;;;;;;;0.20;0.20;;;7.40;99.90;;;;;;5023041;28;20702;-57
2023/12/13 03:24:07;;;;;;;1.92;0.50;;;7.30;99.90;;;;;;5008375;28;20273;-57
2023/12/13 03:26:35;;;;;;;3.10;0.50;;;7.30;99.90;;;;;;5012833;28;20300;-58
2023/12/13 03:29:03;;;;;;;0.77;0.38;;;7.20;99.90;;;;;;5011300;28;20203;-59
2023/12/13 03:31:33;;;;;;;1.27;0.40;;;7.20;99.90;;;;;;5012599;28;20286;-58
2023/12/13 03:34:01;;;;;;;2.85;0.70;;;7.20;99.90;;;;;;5012436;28;20207;-57
2023/12/13 03:36:29;;;;;;;1.55;0.40;;;7.10;99.90;;;;;;5012426;28;20223;-58
2023/12/13 03:38:57;;;;;;;2.17;0.82;;;7.20;99.90;;;;;;5006964;28;20203;-59
2023/12/13 03:41:25;;;;;;;4.60;1.05;;;7.20;99.90;;;;;;5012437;28;20370;-57
2023/12/13 03:43:53;;;;;;;3.63;1.05;;;7.10;99.90;;;;;;5012795;28;20298;-57
2023/12/13 03:46:23;;;;;;;1.60;0.85;;;7.20;99.90;;;;;;5010368;28;20285;-57
2023/12/13 03:48:53;;;;;;;2.00;0.70;;;7.20;99.90;;;;;;5011340;28;20207;-56
2023/12/13 03:51:21;;;;;;;3.97;1.13;;;7.20;99.90;;;;;;5014536;28;20230;-56
2023/12/13 03:53:48;;;;;;;5.25;1.38;;;7.20;99.90;;;;;;5009740;28;20207;-57
2023/12/13 03:56:16;;;;;;;5.63;1.75;;;7.30;99.90;;;;;;5032020;28;20272;-57
2023/12/13 03:58:44;;;;;;;8.85;1.38;;;7.30;99.90;;;;;;5032118;28;20249;-59
2023/12/13 04:01:12;;;;;;;2.10;0.90;;;7.30;99.90;;;;;;5031928;28;20218;-57
2023/12/13 04:03:40;;;;;;;5.95;1.73;;;7.30;99.90;;;;;;5031779;28;20203;-58
2023/12/13 04:06:09;;;;;;;4.40;1.20;;;7.30;99.90;;;;;;5031931;28;20234;-58
2023/12/13 04:08:37;;;;;;;5.13;1.25;;;7.40;99.90;;;;;;5015340;28;20235;-57
2023/12/13 04:11:06;;;;;;;5.45;1.20;;;7.40;99.90;;;;;;5012018;28;20665;-57
2023/12/13 04:13:34;;;;;;;9.15;2.00;;;7.40;99.90;;;;;;5012178;28;20238;-57
2023/12/13 04:16:02;;;;;;;6.40;1.23;;;7.40;99.90;;;;;;5020663;28;20591;-57
2023/12/13 04:18:29;;;;;;;7.05;1.73;;;7.40;99.90;;;;;;5012102;28;20285;-56
2023/12/13 04:20:57;;;;;;;3.97;1.00;;;7.40;99.90;;;;;;5011804;28;20262;-57
2023/12/13 04:23:27;;;;;;;9.23;1.33;;;7.50;99.90;;;;;;5010360;28;20211;-57
2023/12/13 04:25:54;;;;;;;9.38;1.58;;;7.40;99.90;;;;;;5009534;28;20266;-57
2023/12/13 04:28:22;;;;;;;7.88;1.30;;;7.40;99.90;;;;;;5011943;28;20215;-59
2023/12/13 04:30:50;;;;;;;6.18;1.27;;;7.50;99.90;;;;;;5011630;28;20207;-57
2023/12/13 04:33:18;;;;;;;8.27;1.58;;;7.40;99.90;;;;;;5012065;28;20199;-57
2023/12/13 04:35:47;;;;;;;4.35;1.42;;;7.50;99.90;;;;;;5011467;28;20234;-59
2023/12/13 04:38:15;;;;;;;4.22;1.35;;;7.50;99.90;;;;;;5009900;28;20207;-60
2023/12/13 04:40:44;;;;;;;2.20;1.10;;;7.50;99.90;;;;;;5011063;28;20234;-57
2023/12/13 04:43:12;;;;;;;6.53;1.60;;;7.50;99.90;;;;;;5011742;28;20257;-57
2023/12/13 04:45:40;;;;;;;3.40;1.38;;;7.50;99.90;;;;;;5011278;28;20689;-57
2023/12/13 04:48:07;;;;;;;3.38;1.50;;;7.60;99.90;;;;;;5011746;28;20707;-57
2023/12/13 04:50:36;;;;;;;6.93;1.15;;;7.60;99.90;;;;;;5011534;28;20207;-57
2023/12/13 04:53:03;;;;;;;5.40;1.40;;;7.60;99.90;;;;;;5010501;28;20747;-57
2023/12/13 04:55:31;;;;;;;4.53;1.50;;;7.60;99.90;;;;;;5011583;28;20207;-57
2023/12/13 04:58:01;;;;;;;3.20;1.50;;;7.60;99.90;;;;;;5011552;28;20215;-59
2023/12/13 05:00:28;;;;;;;4.75;1.50;;;7.50;99.90;;;;;;5011651;28;20211;-57
2023/12/13 05:02:56;;;;;;;4.03;1.40;;;7.50;99.90;;;;;;5011692;28;20232;-57
2023/12/13 05:05:24;;;;;;;3.72;1.20;;;7.50;99.90;;;;;;5010562;28;20238;-57
2023/12/13 05:07:52;;;;;;;5.57;1.45;;;7.50;99.90;;;;;;5010144;28;20224;-57
2023/12/13 05:10:20;;;;;;;2.53;1.52;;;7.50;99.90;;;;;;5011843;28;20611;-58
2023/12/13 05:12:48;;;;;;;3.05;1.65;;;7.40;99.90;;;;;;5011954;28;20199;-59
2023/12/13 05:15:17;;;;;;;5.65;1.70;;;7.40;99.90;;;;;;5020337;28;20230;-58
2023/12/13 05:17:45;;;;;;;4.68;1.55;;;7.40;99.90;;;;;;5026276;28;20223;-57
2023/12/13 05:20:13;;;;;;;2.40;1.25;;;7.40;99.90;;;;;;5011680;28;20219;-57
2023/12/13 05:22:42;;;;;;;4.38;1.48;;;7.40;99.90;;;;;;5026028;28;20230;-59
2023/12/13 05:25:10;;;;;;;4.50;1.88;;;7.30;99.90;;;;;;5003607;28;20207;-59
2023/12/13 05:27:38;;;;;;;2.33;1.33;;;7.30;99.90;;;;;;5010392;28;20230;-59
2023/12/13 05:30:07;;;;;;;6.43;1.40;;;7.30;99.90;;;;;;5003207;28;20637;-58
2023/12/13 05:32:37;;;;;;;1.80;1.30;;;7.30;99.90;;;;;;5009471;28;20231;-58
2023/12/13 05:35:05;;;;;;;1.05;1.05;;;7.20;99.90;;;;;;5010374;28;20207;-58
2023/12/13 05:37:33;;;;;;;4.57;1.40;;;7.20;99.90;;;;;;5010255;28;20310;-56
2023/12/13 05:40:03;;;;;;;1.75;1.30;;;7.20;99.90;;;;;;5007708;28;20692;-57
2023/12/13 05:42:31;;;;;;;1.10;1.10;;;7.10;99.90;;;;;;5006726;28;20239;-59
2023/12/13 05:44:59;;;;;;;2.80;1.05;;;7.10;99.90;;;;;;5011852;28;20219;-57
2023/12/13 05:47:27;;;;;;;2.75;1.13;;;7.20;99.90;;;;;;5013889;28;20231;-58
2023/12/13 05:49:56;;;;;;;1.20;0.93;;;7.10;99.90;;;;;;5013693;28;20555;-58
2023/12/13 05:52:24;;;;;;;1.48;1.00;;;7.20;99.90;;;;;;5006563;28;20195;-57
2023/12/13 05:54:52;;;;;;;2.92;1.25;;;7.20;99.90;;;;;;5008161;28;20214;-59
2023/12/13 05:57:20;;;;;;;1.55;0.88;;;7.20;99.90;;;;;;5019449;28;20218;-56
2023/12/13 05:59:48;;;;;;;4.32;1.20;;;7.20;99.90;;;;;;5034173;28;20293;-58
2023/12/13 06:02:16;;;;;;;2.80;1.20;;;7.20;99.90;;;;;;5020095;28;20756;-57
2023/12/13 06:04:44;;;;;;;5.95;1.90;;;7.20;99.90;;;;;;5022450;28;20294;-58
2023/12/13 06:07:13;;;;;;;3.00;1.40;;;7.20;99.90;;;;;;5014393;28;20613;-58
2023/12/13 06:09:41;;;;;;;1.48;1.00;;;7.10;99.90;;;;;;5006842;28;20233;-58
2023/12/13 06:12:09;;;;;;;4.35;1.25;;;7.10;99.90;;;;;;5007615;28;20207;-59
2023/12/13 06:14:37;;;;;;;1.52;1.13;;;7.10;99.90;;;;;;5014490;28;20268;-58
2023/12/13 06:17:05;;;;;;;3.58;1.73;;;7.10;99.90;;;;;;5008957;28;20682;-59
2023/12/13 06:19:33;;;;;;;12.90;1.75;;;7.00;99.90;;;;;;5018808;28;20755;-57
2023/12/13 06:22:01;;;;;;;1.45;1.35;;;7.00;99.90;;;;;;5009184;28;20242;-58
2023/12/13 06:24:30;;;;;;;6.38;1.25;;;7.00;99.90;;;;;;5016443;28;20329;-56
2023/12/13 06:26:58;;;;;;;1.60;1.48;;;6.90;99.90;;;;;;5018990;28;20220;-56
2023/12/13 06:29:26;;;;;;;1.00;1.00;;;6.90;99.90;;;;;;5017732;28;20241;-57
2023/12/13 06:31:53;;;;;;;4.68;1.30;;;6.90;99.90;;;;;;5014110;28;20231;-56
2023/12/13 06:34:22;;;;;;;4.43;1.35;;;6.90;99.90;;;;;;5012769;28;20258;-57
2023/12/13 06:36:50;;;;;;;1.42;1.33;;;6.90;99.90;;;;;;5016531;28;20231;-57
2023/12/13 06:39:18;;;;;;;3.10;1.80;;;6.90;99.90;;;;;;5017300;28;20237;-57
2023/12/13 06:41:47;;;;;;;4.85;1.60;;;6.90;99.90;;;;;;5015930;28;20218;-57
2023/12/13 06:44:16;;;;;;;2.72;1.25;;;6.90;99.90;;;;;;5020260;28;20739;-56
2023/12/13 06:46:44;;;;;;;3.42;2.00;;;6.90;99.90;;;;;;5016623;28;20239;-58
2023/12/13 06:49:12;;;;;;;6.00;1.65;;;6.90;99.90;;;;;;5017638;28;20202;-58
2023/12/13 06:51:40;;;;;;;4.47;1.90;;;7.00;99.90;;;;;;5017704;28;20207;-59
2023/12/13 06:54:08;;;;;;;2.50;2.30;;;7.00;99.90;;;;;;5012189;28;20709;-58
2023/12/13 06:56:36;;;;;;;6.28;2.92;;;7.00;99.90;;;;;;5012507;28;20223;-56
2023/12/13 06:59:05;;;;;;;6.68;2.53;;;7.10;99.90;;;;;;5016939;28;20246;-57
2023/12/13 07:01:34;;;;;;;5.50;2.88;;;7.10;99.90;;;;;;5017265;28;20664;-60
2023/12/13 07:04:02;;;;;;;7.90;3.55;;;7.10;99.90;;;;;;5015470;28;20281;-60
2023/12/13 07:06:30;;;;;;;9.95;3.05;;;7.20;99.90;;;;;;5012567;28;20223;-60
2023/12/13 07:08:59;;;;;;;4.72;3.13;;;7.30;99.90;;;;;;5012810;28;20253;-60
2023/12/13 07:11:26;;;;;;;6.57;3.35;;;7.20;99.90;;;;;;5012625;28;20207;-61
2023/12/13 07:13:57;;;;;;;7.68;2.78;;;7.30;99.90;;;;;;5012629;28;20657;-60
2023/12/13 07:16:26;;;;;;;7.07;3.55;;;7.30;99.90;;;;;;5015166;28;20236;-61
2023/12/13 07:18:55;;;;;;;8.73;3.40;;;7.40;99.90;;;;;;5026433;28;20676;-60
2023/12/13 07:21:23;;;;;;;9.50;3.45;;;7.40;99.90;;;;;;5024374;28;20204;-60
2023/12/13 07:23:51;;;;;;;5.75;3.25;;;7.40;99.90;;;;;;5009454;28;20285;-60
2023/12/13 07:26:20;;;;;;;8.07;3.90;;;7.40;99.90;;;;;;5004501;28;20256;-61
2023/12/13 07:28:49;;;;;;;9.38;4.47;;;7.50;99.90;;;;;;5013043;28;20246;-61
2023/12/13 07:31:17;;;;;;;9.20;4.03;;;7.50;99.90;;;;;;5012487;28;20207;-61
2023/12/13 07:33:46;;;;;;;7.78;3.78;;;7.60;99.90;;;;;;5012331;28;20735;-62
2023/12/13 07:36:15;;;;;;;8.43;4.18;;;7.60;99.90;;;;;;5004510;28;20670;-61
2023/12/13 07:38:42;;;;;;;10.68;4.35;;;7.60;99.90;;;;;;5012467;28;20210;-62
2023/12/13 07:41:10;;;;;;;8.65;3.95;;;7.60;99.90;;;;;;5012324;28;20211;-61
2023/12/13 07:43:39;;;;;;;9.48;4.10;;;7.60;99.90;;;;;;5012022;28;20218;-61
2023/12/13 07:46:08;;;;;;;5.63;3.67;;;7.60;99.90;;;;;;5011793;28;20234;-61
2023/12/13 07:48:36;;;;;;;8.85;4.30;;;7.70;99.90;;;;;;5012187;28;20266;-61
2023/12/13 07:51:06;;;;;;;10.75;4.00;;;7.70;99.90;;;;;;5036048;22;20273;-74
2023/12/13 07:53:34;;;;;;;5.68;4.32;;;7.70;99.90;;;;;;5031986;28;20202;-75
2023/12/13 07:56:02;;;;;;;14.02;4.43;;;7.80;99.90;;;;;;5029289;28;20207;-75
2023/12/13 07:58:30;;;;;;;7.97;3.92;;;7.80;99.90;;;;;;5035057;28;20581;-74
2023/12/13 08:00:58;;;;;;;10.32;4.45;;;7.80;99.90;;;;;;5032183;28;20304;-74
2023/12/13 08:03:26;;;;;;;8.73;4.20;;;7.80;99.90;;;;;;5031158;28;20293;-73
2023/12/13 08:05:54;;;;;;;7.32;3.88;;;7.90;99.90;;;;;;5031645;28;20211;-73
2023/12/13 08:08:24;;;;;;;9.32;3.65;;;8.00;99.90;;;;;;5026607;28;20656;-73
2023/12/13 08:10:52;;;;;;;8.23;4.35;;;8.00;99.90;;;;;;5046395;22;20274;-63
2023/12/13 08:13:21;;;;;;;11.43;4.50;;;8.10;99.90;;;;;;5031380;28;20210;-63
2023/12/13 08:15:49;;;;;;;9.77;3.90;;;8.10;99.90;;;;;;5030866;28;20302;-62
2023/12/13 08:18:17;;;;;;;5.55;4.00;;;8.20;99.90;;;;;;5030962;28;20202;-61
2023/12/13 08:20:45;;;;;;;9.18;4.03;;;8.20;99.90;;;;;;5031176;28;20218;-61
2023/12/13 08:23:13;;;;;;;8.23;3.80;;;8.30;99.90;;;;;;5031180;28;20307;-62
2023/12/13 08:25:42;;;;;;;16.40;4.40;;;8.30;99.90;;;;;;5030988;28;20207;-61
2023/12/13 08:28:10;;;;;;;9.65;4.03;;;8.40;99.90;;;;;;5030882;28;20268;-62
2023/12/13 08:30:38;;;;;;;12.75;4.10;;;8.40;99.90;;;;;;5030721;28;20256;-62
2023/12/13 08:33:06;;;;;;;6.90;4.05;;;8.40;99.90;;;;;;5030391;28;20333;-62
2023/12/13 08:35:35;;;;;;;8.27;4.57;;;8.40;99.90;;;;;;5030955;28;20207;-62
2023/12/13 08:38:03;;;;;;;5.00;3.30;;;8.40;99.90;;;;;;5030627;28;20301;-61
2023/12/13 08:40:31;;;;;;;6.45;4.18;;;8.40;99.90;;;;;;5030694;28;20226;-61
2023/12/13 08:43:00;;;;;;;6.88;3.60;;;8.40;99.90;;;;;;5029767;28;20226;-62
2023/12/13 08:45:28;;;;;;;7.18;3.58;;;8.40;99.90;;;;;;5030694;28;20268;-62
2023/12/13 08:47:56;;;;;;;6.82;3.85;;;8.40;99.90;;;;;;5027280;28;20216;-62
2023/12/13 08:50:24;;;;;;;6.70;3.47;;;8.40;99.90;;;;;;5030968;28;20268;-62
2023/12/13 08:52:51;;;;;;;11.18;3.90;;;8.40;99.90;;;;;;5030808;28;20660;-62
2023/12/13 08:55:19;;;;;;;8.90;3.20;;;8.40;99.90;;;;;;5030664;28;20614;-62
2023/12/13 08:57:47;;;;;;;13.15;3.50;;;8.40;99.90;;;;;;5030344;28;20207;-61
2023/12/13 09:00:17;;;;;;;6.60;3.38;;;8.50;99.90;;;;;;5031204;28;20249;-62
2023/12/13 09:02:45;;;;;;;5.85;3.42;;;8.50;99.90;;;;;;5032476;28;20199;-62
2023/12/13 09:05:13;;;;;;;5.97;3.65;;;8.60;99.90;;;;;;5029105;28;20317;-61
2023/12/13 09:07:41;;;;;;;6.47;3.90;;;8.60;99.90;;;;;;5031892;28;20203;-62
2023/12/13 09:10:11;;;;;;;9.88;3.58;;;8.60;99.90;;;;;;5039513;28;20322;-61
2023/12/13 09:12:39;;;;;;;6.20;3.58;;;8.70;99.90;;;;;;5043379;28;20221;-62
2023/12/13 09:15:07;;;;;;;10.93;4.00;;;8.60;99.90;;;;;;5035101;28;20198;-61
2023/12/13 09:17:37;;;;;;;5.53;3.67;;;8.60;99.90;;;;;;5038602;28;20203;-62
2023/12/13 09:20:09;;;;;;;4.10;3.67;;;8.70;99.90;;;;;;5033669;28;20753;-62
2023/12/13 09:22:37;;;;;;;8.48;3.30;;;8.70;99.90;;;;;;5037008;28;20202;-62
2023/12/13 09:25:06;;;;;;;7.43;3.58;;;8.70;99.90;;;;;;5033616;28;20222;-61
2023/12/13 09:27:34;;;;;;;10.23;3.50;;;8.70;99.90;;;;;;5033759;28;20732;-62
2023/12/13 09:30:02;;;;;;;6.03;3.30;;;8.80;99.90;;;;;;5033693;28;20273;-62
2023/12/13 09:32:33;;;;;;;8.23;3.25;;;8.90;99.90;;;;;;5034036;28;20214;-62
2023/12/13 09:35:02;;;;;;;6.93;3.50;;;8.90;99.90;;;;;;5031413;28;20198;-61
2023/12/13 09:37:30;;;;;;;4.57;3.30;;;9.10;99.90;;;;;;5033779;28;20231;-62
2023/12/13 09:39:59;;;;;;;4.47;2.83;;;9.20;99.90;;;;;;5031942;28;20225;-62
2023/12/13 09:42:30;;;;;;;6.03;2.92;;;9.30;99.90;;;;;;5034080;28;20227;-61
2023/12/13 09:44:58;;;;;;;3.08;2.60;;;9.40;99.90;;;;;;5030681;28;20226;-62
2023/12/13 09:47:27;;;;;;;4.75;2.63;;;9.50;99.90;;;;;;5033336;28;20678;-62
2023/12/13 09:49:55;;;;;;;8.45;2.22;;;9.60;99.90;;;;;;5033634;28;20219;-62
2023/12/13 09:52:24;;;;;;;3.08;1.98;;;9.90;99.90;;;;;;5033746;28;20209;-62
2023/12/13 09:54:52;;;;;;;2.47;1.80;;;10.20;99.90;;;;;;5033406;28;20230;-62
2023/12/13 09:57:20;;;;;;;6.38;2.05;;;10.50;99.90;;;;;;5033313;28;20202;-62
2023/12/13 09:59:48;;;;;;;3.55;1.40;;;10.50;99.90;;;;;;5031977;28;20238;-62
2023/12/13 10:02:17;;;;;;;5.40;1.50;;;10.40;99.90;;;;;;5030170;28;20199;-63
2023/12/13 10:04:45;;;;;;;3.60;1.48;;;10.50;99.90;;;;;;5031406;28;20721;-62
2023/12/13 10:07:13;;;;;;;3.15;1.63;;;10.60;99.90;;;;;;5033782;28;20202;-62
2023/12/13 10:09:42;;;;;;;3.88;1.45;;;11.00;99.90;;;;;;5033406;28;20222;-62
2023/12/13 10:12:12;;;;;;;1.70;1.60;;;11.30;99.90;;;;;;5031580;28;20210;-61
2023/12/13 10:14:40;;;;;;;2.53;1.67;;;11.50;99.90;;;;;;5034433;28;20209;-61
2023/12/13 10:17:08;;;;;;;2.67;1.40;;;11.60;99.90;;;;;;5032948;28;20257;-61
2023/12/13 10:19:47;;;;;;;5.68;1.65;;;11.50;99.90;;;;;;5032180;28;20889;-62
2023/12/13 10:22:17;;;;;;;3.45;1.60;;;11.30;99.90;;;;;;5031602;28;20203;-62
2023/12/13 10:24:47;;;;;;;2.88;1.70;;;11.30;99.90;;;;;;5032887;28;20237;-62
2023/12/13 10:27:15;;;;;;;1.77;1.42;;;11.30;99.90;;;;;;5030275;28;20217;-62
2023/12/13 10:29:45;;;;;;;4.68;1.48;;;11.10;99.90;;;;;;5033041;28;20269;-62
2023/12/13 10:32:13;;;;;;;4.25;1.58;;;11.00;99.90;;;;;;5035309;28;20289;-62
2023/12/13 10:34:41;;;;;;;5.03;1.30;;;10.90;99.90;;;;;;5032935;28;20226;-61
2023/12/13 10:37:08;;;;;;;4.05;1.55;;;10.80;99.90;;;;;;5032405;28;20209;-61
2023/12/13 10:39:36;;;;;;;2.40;1.40;;;10.70;99.90;;;;;;5031623;28;20688;-62
2023/12/13 10:42:06;;;;;;;2.83;1.40;;;10.50;99.90;;;;;;5029796;28;20628;-61
2023/12/13 10:44:34;;;;;;;4.03;1.70;;;10.40;99.90;;;;;;5031156;28;20614;-62
2023/12/13 10:47:07;;;;;;;3.90;1.58;;;10.40;99.90;;;;;;5030679;28;20209;-62
2023/12/13 10:49:35;;;;;;;4.60;1.90;;;10.30;99.90;;;;;;5032835;28;20272;-63
2023/12/13 10:52:04;;;;;;;1.88;1.38;;;10.30;99.90;;;;;;5032451;28;20606;-62
2023/12/13 10:54:32;;;;;;;5.57;1.60;;;10.20;99.90;;;;;;5032735;28;20199;-62
2023/12/13 10:57:00;;;;;;;6.80;1.88;;;10.20;99.90;;;;;;5032493;28;20207;-63
2023/12/13 10:59:29;;;;;;;7.07;2.08;;;10.20;99.90;;;;;;5031832;28;20218;-62
2023/12/13 11:01:57;;;;;;;5.13;2.00;;;10.30;99.90;;;;;;5032687;28;20296;-62
2023/12/13 11:04:25;;;;;;;5.20;1.98;;;10.30;99.90;;;;;;5032189;28;20215;-62
2023/12/13 11:06:53;;;;;;;4.50;1.85;;;10.20;99.90;;;;;;5032742;28;20321;-62
2023/12/13 11:09:22;;;;;;;2.10;1.83;;;10.20;99.90;;;;;;5032855;28;20265;-62
2023/12/13 11:11:50;;;;;;;2.60;1.52;;;10.10;99.90;;;;;;5032488;28;20602;-62
2023/12/13 11:14:20;;;;;;;1.80;1.70;;;10.00;99.90;;;;;;5032307;28;20276;-62
2023/12/13 11:16:50;;;;;;;6.60;1.88;;;10.00;99.90;;;;;;5032250;28;20286;-62
2023/12/13 11:19:21;;;;;;;3.88;1.70;;;9.90;99.90;;;;;;5032112;28;20740;-62
2023/12/13 11:21:49;;;;;;;3.83;1.95;;;9.90;99.90;;;;;;5032538;28;20211;-62
2023/12/13 11:24:22;;;;;;;3.03;1.95;;;10.00;99.90;;;;;;5032180;28;20211;-62
2023/12/13 11:26:51;;;;;;;1.80;1.30;;;10.00;99.90;;;;;;5032119;28;20206;-62
2023/12/13 11:29:20;;;;;;;4.10;1.17;;;10.00;99.90;;;;;;5031884;28;20996;-62
2023/12/13 11:31:53;;;;;;;3.90;1.88;;;10.00;99.90;;;;;;5031805;28;20583;-62
2023/12/13 11:34:32;;;;;;;3.78;1.88;;;10.00;99.90;;;;;;5031333;28;20206;-62
2023/12/13 11:37:00;;;;;;;5.68;1.50;;;10.00;99.90;;;;;;5031825;28;20264;-61
2023/12/13 11:39:29;;;;;;;4.43;1.45;;;10.00;99.90;;;;;;5024520;28;20269;-62
2023/12/13 11:41:58;;;;;;;1.95;1.52;;;10.10;99.90;;;;;;5031966;28;20234;-62
2023/12/13 11:44:28;;;;;;;2.90;1.33;;;10.10;99.90;;;;;;5031820;28;20261;-62
2023/12/13 11:46:59;;;;;;;1.45;1.20;;;10.20;99.90;;;;;;5031857;28;20264;-62
2023/12/13 11:49:28;;;;;;;8.77;2.08;;;10.20;99.90;;;;;;5031803;28;20226;-62
2023/12/13 11:51:56;;;;;;;4.68;1.50;;;10.30;99.90;;;;;;5031678;28;20206;-62
2023/12/13 11:54:32;;;;;;;3.33;1.20;;;10.30;99.90;;;;;;5088295;28;20608;-62
2023/12/13 11:57:00;;;;;;;7.10;1.40;;;10.50;99.90;;;;;;5088304;28;20201;-62
2023/12/13 11:59:29;;;;;;;5.38;1.48;;;10.60;99.90;;;;;;5080659;28;20273;-63
2023/12/13 12:01:57;;;;;;;3.50;1.42;;;10.60;99.90;;;;;;5088444;28;20232;-62
2023/12/13 12:04:25;;;;;;;5.28;1.30;;;10.70;99.90;;;;;;5087964;28;20193;-62
2023/12/13 12:06:54;;;;;;;4.78;1.35;;;10.70;99.90;;;;;;5088247;28;20262;-63
2023/12/13 12:09:22;;;;;;;7.25;1.13;;;10.80;99.90;;;;;;5088233;28;20263;-62
2023/12/13 12:11:54;;;;;;;4.70;1.48;;;10.80;99.90;;;;;;5088336;28;20204;-62
2023/12/13 12:14:25;;;;;;;4.82;1.40;;;10.80;99.90;;;;;;5087213;28;20381;-63
2023/12/13 12:16:53;;;;;;;3.75;1.15;;;10.80;99.90;;;;;;5087880;28;20205;-62
2023/12/13 12:19:21;;;;;;;5.35;1.27;;;10.80;99.90;;;;;;5087185;28;20260;-63
2023/12/13 12:21:50;;;;;;;1.15;0.70;;;10.80;99.90;;;;;;5087902;28;20289;-62
2023/12/13 12:24:18;;;;;;;5.40;1.20;;;10.80;99.90;;;;;;5087638;28;20197;-63
2023/12/13 12:26:47;;;;;;;1.60;0.82;;;10.80;99.90;;;;;;5087841;28;20209;-63
2023/12/13 12:29:17;;;;;;;3.92;0.93;;;10.80;99.90;;;;;;5087630;28;20201;-62
2023/12/13 12:31:45;;;;;;;1.17;0.90;;;10.80;99.90;;;;;;5087815;28;20282;-63
2023/12/13 12:34:13;;;;;;;2.67;0.75;;;10.80;99.90;;;;;;5087485;28;20220;-63
2023/12/13 12:36:41;;;;;;;3.15;0.70;;;10.80;99.90;;;;;;5087618;28;20575;-63
2023/12/13 12:39:09;;;;;;;3.83;0.82;;;10.70;99.90;;;;;;5087521;28;20201;-63
2023/12/13 12:41:38;;;;;;;3.58;1.15;;;10.70;99.90;;;;;;5087717;28;20201;-63
2023/12/13 12:44:07;;;;;;;2.28;1.08;;;10.70;99.90;;;;;;5087616;28;20192;-63
2023/12/13 12:46:36;;;;;;;3.40;0.70;;;10.80;99.90;;;;;;5087087;28;20651;-63
2023/12/13 12:49:04;;;;;;;3.35;0.60;;;10.80;99.90;;;;;;5087401;28;20575;-62
2023/12/13 12:51:32;;;;;;;2.85;0.70;;;10.90;99.90;;;;;;5086951;28;20235;-62
2023/12/13 12:54:00;;;;;;;2.05;0.70;;;11.10;99.90;;;;;;5086525;28;20224;-63
2023/12/13 12:56:28;;;;;;;2.03;0.65;;;11.30;99.90;;;;;;5086445;28;20267;-63
2023/12/13 12:58:56;;;;;;;1.50;0.57;;;11.40;99.90;;;;;;5086608;28;20205;-63
2023/12/13 13:01:24;;;;;;;2.38;0.52;;;11.60;99.90;;;;;;5086222;28;20710;-63